This is the latest recevied weather packets stored in our database for station/object DB0GIS-11. If no packets are shown the sender has not sent any weather packets the latest 10 day(s).
| Time | Temp. | Humidity | Pressure | Rain* | Wind** | Luminosity | Snow |
|---|---|---|---|---|---|---|---|
| 1778252844 | 15.56° C | 59% | 1013.9 hPa | 0 mm | - | - | - |
| 1778251043 | 16.11° C | 59% | 1014.1 hPa | 0 mm | - | - | - |
| 1778249847 | 16.11° C | 61% | 1014.2 hPa | 0 mm | - | - | - |
| 1778248063 | 15.56° C | 62% | 1014.4 hPa | 0 mm | - | - | - |
| 1778238439 | 14.44° C | 60% | 1014.9 hPa | 0 mm | - | - | - |
| 1778237845 | 14.44° C | 61% | 1015 hPa | 0 mm | - | - | - |
| 1778236044 | 13.89° C | 57% | 1015.3 hPa | 0 mm | - | - | - |
| 1778233648 | 12.78° C | 46% | 1015.5 hPa | 0 mm | - | - | - |
| 1778228867 | 11.11° C | 17% | 1015.8 hPa | 0 mm | - | - | - |
| 1778223444 | 9.44° C | 10% | 1015.6 hPa | 0 mm | - | - | - |
| 1778221641 | 8.33° C | 10% | 1015.4 hPa | 0 mm | - | - | - |
| 1778217438 | 6.67° C | 10% | 1014.9 hPa | 0 mm | - | - | - |
| 1778216841 | 6.67° C | 10% | 1014.7 hPa | 0 mm | - | - | - |
| 1778216244 | 6.11° C | 10% | 1014.9 hPa | 0 mm | - | - | - |
| 1778214463 | 5.56° C | 10% | 1014.7 hPa | 0 mm | - | - | - |
| 1778211467 | 5° C | 10% | 1014.6 hPa | 0 mm | - | - | - |
| 1778209682 | 5° C | 10% | 1014.2 hPa | 0 mm | - | - | - |
| 1778209066 | 5° C | 10% | 1014.1 hPa | 0 mm | - | - | - |
| 1778201846 | 6.67° C | 10% | 1014.3 hPa | 0 mm | - | - | - |
| 1778201265 | 6.67° C | 10% | 1014.3 hPa | 0 mm | - | - | - |
| 1778200046 | 6.67° C | 10% | 1014.3 hPa | 0 mm | - | - | - |
| 1778198879 | 7.22° C | 10% | 1014.5 hPa | 0 mm | - | - | - |
| 1778196465 | 7.78° C | 10% | 1014.5 hPa | 0 mm | - | - | - |
| 1778195849 | 7.78° C | 10% | 1014.5 hPa | 0 mm | - | - | - |
| 1778191645 | 8.33° C | 10% | 1014.5 hPa | 0 mm | - | - | - |
* Rain latest hour (hover to see other rain measurements)
** Current wind speed in m/s (hover to see current wind gust speed)